Time;durP1;ratioP1;P1;durP2;ratioP2;P2;SDS_P1;SDS_P2;PMS_P1;PMS_P2;Temp;Humidity;BMP_temperature;BMP_pressure;BME280_temperature;BME280_humidity;BME280_pressure;Samples;Min_cycle;Max_cycle;Signal;HPM_P1;HPM_P2
2021/10/11 00:00:13;;;;;;;10.00;2.15;;;;;;;19.05;44.55;102179.00;4423834;32;20053;-69
2021/10/11 00:02:39;;;;;;;16.12;2.55;;;;;;;19.22;44.01;102171.88;4420828;32;20141;-69
2021/10/11 00:05:06;;;;;;;16.12;2.90;;;;;;;19.10;44.26;102171.94;4425151;32;20056;-69
2021/10/11 00:07:32;;;;;;;13.18;3.35;;;;;;;19.24;43.93;102169.34;4425603;32;20070;-69
2021/10/11 00:09:58;;;;;;;18.92;3.97;;;;;;;19.28;43.62;102157.81;4426116;32;20497;-69
2021/10/11 00:12:26;;;;;;;12.43;2.28;;;;;;;19.41;43.28;102155.69;4424527;32;21187;-69
2021/10/11 00:14:52;;;;;;;13.18;1.98;;;;;;;19.21;43.13;102160.91;4425150;32;20079;-69
2021/10/11 00:17:18;;;;;;;10.60;2.45;;;;;;;19.46;43.02;102152.25;4424864;32;20104;-69
2021/10/11 00:19:45;;;;;;;12.05;1.92;;;;;;;19.41;42.63;102155.69;4424523;32;20083;-69
2021/10/11 00:22:11;;;;;;;12.00;2.03;;;;;;;19.48;42.30;102141.13;4423121;32;20103;-69
2021/10/11 00:24:37;;;;;;;14.40;1.80;;;;;;;19.51;42.38;102143.88;4424553;32;20080;-69
2021/10/11 00:27:03;;;;;;;9.82;1.58;;;;;;;19.57;42.11;102135.47;4425915;32;20378;-69
2021/10/11 00:29:28;;;;;;;7.32;1.20;;;;;;;19.45;42.12;102154.28;4426689;32;20021;-69
2021/10/11 00:31:54;;;;;;;8.95;1.40;;;;;;;19.50;41.85;102153.69;4427053;32;20091;-69
2021/10/11 00:34:20;;;;;;;15.05;2.03;;;;;;;19.55;41.96;102166.59;4423655;32;20109;-69
2021/10/11 00:36:45;;;;;;;7.37;1.67;;;;;;;19.61;41.84;102164.72;4423518;32;20507;-69
2021/10/11 00:39:11;;;;;;;10.00;1.87;;;;;;;19.57;41.83;102152.63;4426741;32;20115;-69
2021/10/11 00:41:36;;;;;;;11.05;1.62;;;;;;;19.46;41.81;102143.69;4426336;32;20057;-69
2021/10/11 00:44:03;;;;;;;12.20;1.67;;;;;;;19.46;41.87;102146.53;4423243;32;20060;-69
2021/10/11 00:46:29;;;;;;;9.27;1.23;;;;;;;19.49;41.93;102145.59;4424476;32;20077;-69
2021/10/11 00:48:54;;;;;;;12.18;2.30;;;;;;;19.46;41.96;102161.59;4427274;32;20439;-69
2021/10/11 00:51:21;;;;;;;7.05;1.37;;;;;;;19.36;42.09;102167.72;4426126;32;20104;-69
2021/10/11 00:53:47;;;;;;;7.80;1.23;;;;;;;19.33;42.11;102171.50;4422192;32;20084;-69
2021/10/11 00:56:13;;;;;;;6.68;1.37;;;;;;;19.40;42.05;102188.38;4410732;32;20686;-69
2021/10/11 00:58:39;;;;;;;10.55;1.50;;;;;;;19.32;42.10;102198.44;4421431;32;20073;-69
2021/10/11 01:01:04;;;;;;;8.98;1.25;;;;;;;19.25;42.09;102170.94;4427020;32;20094;-69
2021/10/11 01:03:30;;;;;;;9.13;1.15;;;;;;;19.23;41.97;102175.50;4425314;32;20155;-69
2021/10/11 01:05:56;;;;;;;6.40;1.02;;;;;;;19.30;41.80;102184.62;4421121;32;20497;-69
2021/10/11 01:08:22;;;;;;;8.88;1.20;;;;;;;19.13;42.02;102165.28;4424389;32;20029;-69
2021/10/11 01:10:49;;;;;;;9.23;1.12;;;;;;;19.30;41.44;102161.81;4422391;32;20076;-69
2021/10/11 01:13:15;;;;;;;9.07;1.48;;;;;;;19.43;41.26;102168.22;4424646;32;20095;-69
2021/10/11 01:15:42;;;;;;;6.93;1.12;;;;;;;19.61;40.98;102168.34;4423690;32;20069;-69
2021/10/11 01:18:07;;;;;;;4.30;1.00;;;;;;;19.65;40.85;102162.50;4424623;32;20080;-69
2021/10/11 01:20:33;;;;;;;8.75;1.58;;;;;;;19.51;41.05;102163.03;4425561;32;20042;-69
2021/10/11 01:22:59;;;;;;;5.37;1.05;;;;;;;19.51;nan;102168.75;4424047;32;20454;-69
2021/10/11 01:25:25;;;;;;;8.13;1.35;;;;;;;19.34;41.34;102170.25;4423338;32;20034;-69
2021/10/11 01:27:51;;;;;;;9.90;2.10;;;;;;;19.46;41.20;102177.94;4423254;32;20096;-69
2021/10/11 01:30:19;;;;;;;5.68;1.20;;;;;;;19.38;41.44;102165.19;4423138;32;20367;-69
2021/10/11 01:32:45;;;;;;;6.37;1.15;;;;;;;19.48;41.28;102152.56;4424660;32;20102;-69
2021/10/11 01:35:12;;;;;;;12.45;1.70;;;;;;;19.30;41.56;102161.03;4420775;32;20179;-69
2021/10/11 01:37:38;;;;;;;8.60;1.17;;;;;;;19.31;41.68;102171.97;4422779;32;20463;-69
2021/10/11 01:40:06;;;;;;;10.15;1.10;;;;;;;19.37;41.45;102172.97;4423697;32;20085;-69
2021/10/11 01:42:32;;;;;;;9.93;1.10;;;;;;;19.40;41.67;102165.53;4421084;32;20099;-69
2021/10/11 01:44:58;;;;;;;11.00;1.50;;;;;;;19.46;41.48;102146.53;4423522;32;20046;-69
2021/10/11 01:47:25;;;;;;;12.48;1.52;;;;;;;19.40;41.50;102131.28;4424661;32;20077;-69
2021/10/11 01:49:51;;;;;;;16.23;1.35;;;;;;;19.62;41.29;102146.31;4423153;32;21520;-69
2021/10/11 01:52:17;;;;;;;9.70;1.52;;;;;;;19.29;41.72;102154.50;4423861;32;20069;-69
2021/10/11 01:54:43;;;;;;;11.27;1.23;;;;;;;19.11;42.07;102153.53;4422548;32;20049;-68
2021/10/11 01:57:09;;;;;;;14.98;1.48;;;;;;;19.22;41.85;102129.06;4417457;32;20122;-68
2021/10/11 01:59:35;;;;;;;13.30;1.50;;;;;;;19.32;41.70;102119.31;4421609;32;20097;-68
2021/10/11 02:02:02;;;;;;;13.32;1.25;;;;;;;19.28;41.76;102124.38;4424174;32;20090;-70
2021/10/11 02:04:28;;;;;;;17.98;2.10;;;;;;;19.36;41.53;102113.47;4422907;32;20124;-70
2021/10/11 02:06:53;;;;;;;7.00;1.33;;;;;;;19.51;41.26;102112.44;4421607;32;20061;-70
2021/10/11 02:09:20;;;;;;;15.45;1.42;;;;;;;19.53;41.07;102129.13;4423609;32;20104;-70
2021/10/11 02:11:46;;;;;;;16.05;1.90;;;;;;;19.56;41.01;102143.28;4424036;32;20496;-70
2021/10/11 02:14:11;;;;;;;10.32;1.60;;;;;;;19.64;41.10;102143.78;4423532;32;20084;-70
2021/10/11 02:16:37;;;;;;;10.93;1.60;;;;;;;19.39;41.24;102150.44;4422283;32;20053;-70
2021/10/11 02:19:03;;;;;;;7.12;1.50;;;;;;;19.49;41.08;102146.38;4423828;32;20516;-70
2021/10/11 02:21:29;;;;;;;14.05;1.80;;;;;;;19.40;41.09;102146.34;4423500;32;20393;-70
2021/10/11 02:23:55;;;;;;;8.90;1.55;;;;;;;19.40;40.88;102148.41;4427266;32;20064;-70
2021/10/11 02:26:20;;;;;;;8.15;1.20;;;;;;;19.45;40.69;102134.31;4422701;32;20107;-70
2021/10/11 02:28:46;;;;;;;15.23;1.85;;;;;;;19.25;40.69;102111.00;4424030;32;20782;-70
2021/10/11 02:31:12;;;;;;;15.48;1.58;;;;;;;19.47;40.41;102128.94;4428059;32;20081;-70
2021/10/11 02:33:37;;;;;;;11.82;1.40;;;;;;;19.49;40.40;102132.09;4426045;32;20033;-70
2021/10/11 02:36:03;;;;;;;9.68;1.20;;;;;;;19.64;40.16;102140.94;4421276;32;20042;-70
2021/10/11 02:38:29;;;;;;;10.18;1.48;;;;;;;19.48;40.43;102138.28;4427260;32;20081;-70
2021/10/11 02:40:54;;;;;;;9.68;1.52;;;;;;;19.25;40.92;102133.03;4423328;32;20180;-70
2021/10/11 02:43:20;;;;;;;11.07;1.85;;;;;;;19.43;40.66;102122.53;4424095;32;20049;-70
2021/10/11 02:45:46;;;;;;;13.95;2.03;;;;;;;19.45;40.56;102117.19;4425902;32;20037;-70
2021/10/11 02:48:12;;;;;;;19.73;2.05;;;;;;;19.46;40.70;102115.13;4425331;32;20733;-70
2021/10/11 02:50:38;;;;;;;10.18;1.62;;;;;;;19.48;40.50;102113.38;4426129;32;20096;-70
2021/10/11 02:53:03;;;;;;;10.93;1.62;;;;;;;19.72;40.18;102099.38;4425970;32;20091;-70
2021/10/11 02:55:29;;;;;;;13.82;1.55;;;;;;;19.60;40.30;102083.94;4426508;32;20086;-70
2021/10/11 02:57:55;;;;;;;14.35;1.85;;;;;;;19.56;40.22;102096.78;4411082;32;20105;-70
2021/10/11 03:00:20;;;;;;;13.82;1.40;;;;;;;19.63;40.32;102110.75;4424142;32;20127;-70
2021/10/11 03:02:46;;;;;;;7.05;1.20;;;;;;;19.56;40.49;102125.34;4423927;32;20108;-70
2021/10/11 03:05:12;;;;;;;11.90;1.37;;;;;;;19.56;40.48;102128.19;4423101;32;20109;-70
2021/10/11 03:07:38;;;;;;;13.98;1.70;;;;;;;19.59;40.54;102112.97;4427998;32;20403;-70
2021/10/11 03:10:04;;;;;;;11.43;1.55;;;;;;;19.29;40.90;102103.12;4422344;32;20363;-70
2021/10/11 03:12:30;;;;;;;6.82;1.50;;;;;;;19.49;40.84;102117.06;4424742;32;20048;-70
2021/10/11 03:14:55;;;;;;;11.88;1.90;;;;;;;19.36;41.20;102117.13;4425552;32;20498;-70
2021/10/11 03:17:22;;;;;;;12.57;1.67;;;;;;;19.18;41.49;102113.34;4425881;32;20149;-70
2021/10/11 03:19:47;;;;;;;10.35;1.42;;;;;;;18.94;41.87;102121.56;4426449;32;20102;-70
2021/10/11 03:22:14;;;;;;;6.60;1.10;;;;;;;18.98;41.82;102110.81;4424238;32;20057;-70
2021/10/11 03:24:39;;;;;;;11.50;1.52;;;;;;;18.90;42.04;102102.97;4424718;32;20110;-70
2021/10/11 03:27:05;;;;;;;11.45;1.40;;;;;;;18.93;41.96;102122.03;4425137;32;20392;-70
2021/10/11 03:29:31;;;;;;;10.82;1.37;;;;;;;18.88;42.11;102114.84;4424513;32;20081;-70
2021/10/11 03:31:57;;;;;;;11.30;1.45;;;;;;;18.93;42.05;102119.16;4427056;32;20046;-70
2021/10/11 03:34:22;;;;;;;11.48;1.95;;;;;;;18.90;42.15;102122.94;4423761;32;20209;-70
2021/10/11 03:36:48;;;;;;;11.18;1.45;;;;;;;18.94;41.99;102121.56;4423656;32;20046;-70
2021/10/11 03:39:14;;;;;;;11.80;1.65;;;;;;;18.92;42.06;102118.37;4426236;32;20415;-70
2021/10/11 03:41:40;;;;;;;9.35;1.60;;;;;;;18.72;42.37;102119.94;4424266;32;20053;-70
2021/10/11 03:44:06;;;;;;;12.52;1.67;;;;;;;18.83;42.16;102118.28;4426202;32;20071;-70
2021/10/11 03:46:33;;;;;;;11.45;1.40;;;;;;;18.89;42.02;102115.63;4425169;32;20097;-70
2021/10/11 03:49:00;;;;;;;12.57;1.40;;;;;;;19.16;41.64;102113.78;4424379;32;20437;-70
2021/10/11 03:51:26;;;;;;;13.98;1.90;;;;;;;18.80;42.37;102115.56;4424490;32;21202;-70
2021/10/11 03:53:51;;;;;;;14.68;1.42;;;;;;;18.85;42.19;102118.63;4424871;32;20214;-70
2021/10/11 03:56:17;;;;;;;16.45;1.85;;;;;;;18.67;42.53;102123.38;4422435;32;20041;-70
2021/10/11 03:58:42;;;;;;;16.12;1.65;;;;;;;18.69;42.50;102132.25;4421904;32;20084;-70
2021/10/11 04:01:08;;;;;;;11.80;1.40;;;;;;;18.68;42.63;102125.75;4423967;32;20477;-70
2021/10/11 04:03:34;;;;;;;17.75;1.98;;;;;;;18.39;43.26;102121.50;4426566;32;20118;-70
2021/10/11 04:06:00;;;;;;;9.70;1.58;;;;;;;18.50;42.96;102117.03;4423279;32;20126;-70
2021/10/11 04:08:43;;;;;;;13.62;2.25;;;;;;;18.45;43.05;102102.56;4427492;32;20081;-70
2021/10/11 04:11:11;;;;;;;12.98;1.80;;;;;;;18.50;42.81;102113.41;4417491;32;20085;-70
2021/10/11 04:13:38;;;;;;;13.88;1.48;;;;;;;18.44;43.07;102110.31;4423534;32;20426;-70
2021/10/11 04:16:06;;;;;;;13.73;1.92;;;;;;;18.46;42.93;102092.75;4423608;32;20076;-70
2021/10/11 04:18:32;;;;;;;15.32;1.87;;;;;;;18.52;43.01;102105.97;4426471;32;20072;-70
2021/10/11 04:20:57;;;;;;;15.98;1.48;;;;;;;18.41;42.94;102099.81;4422476;32;20133;-70
2021/10/11 04:23:23;;;;;;;9.20;1.67;;;;;;;18.47;42.87;102106.53;4423276;32;20364;-70
2021/10/11 04:25:49;;;;;;;10.63;1.60;;;;;;;18.23;43.11;102105.34;4423032;32;20069;-71
2021/10/11 04:28:15;;;;;;;12.63;1.98;;;;;;;18.32;43.04;102110.31;4422617;32;20092;-70
2021/10/11 04:30:42;;;;;;;7.22;1.20;;;;;;;18.22;43.16;102100.09;4424746;32;20149;-70
2021/10/11 04:33:08;;;;;;;17.65;1.95;;;;;;;18.33;42.90;102109.06;4425862;32;20068;-70
2021/10/11 04:35:34;;;;;;;12.70;2.50;;;;;;;18.42;42.74;102103.47;4421528;32;20689;-70
2021/10/11 04:38:00;;;;;;;11.05;1.40;;;;;;;18.41;42.90;102110.44;4424837;32;20108;-71
2021/10/11 04:40:26;;;;;;;9.07;2.25;;;;;;;18.40;42.74;102094.59;4426232;32;20081;-71
2021/10/11 04:42:51;;;;;;;17.73;1.70;;;;;;;17.98;43.19;102099.62;4425186;32;20129;-70
2021/10/11 04:45:17;;;;;;;13.57;1.67;;;;;;;18.13;42.80;102109.31;4424432;32;20210;-70
2021/10/11 04:47:44;;;;;;;11.77;1.80;;;;;;;18.20;42.83;102111.16;4423589;32;20085;-70
2021/10/11 04:50:09;;;;;;;13.20;1.90;;;;;;;18.24;42.84;102108.97;4419779;32;20041;-70
2021/10/11 04:52:36;;;;;;;18.23;2.10;;;;;;;18.30;42.78;102104.28;4421809;32;20092;-71
2021/10/11 04:55:01;;;;;;;9.90;1.77;;;;;;;18.26;42.67;102110.12;4423494;32;20069;-70
2021/10/11 04:57:27;;;;;;;18.60;1.67;;;;;;;18.15;42.96;102117.41;4414514;32;20580;-70
2021/10/11 04:59:52;;;;;;;8.60;1.58;;;;;;;18.21;42.94;102112.72;4415697;32;20041;-70
2021/10/11 05:02:18;;;;;;;11.60;1.65;;;;;;;18.12;43.11;102109.78;4422397;32;20097;-71
2021/10/11 05:04:44;;;;;;;10.27;2.92;;;;;;;18.12;43.11;102106.91;4423095;32;20104;-71
2021/10/11 05:07:09;;;;;;;16.12;2.00;;;;;;;18.09;43.15;102102.94;4424580;32;20053;-70
2021/10/11 05:09:35;;;;;;;13.48;2.25;;;;;;;17.99;43.50;102109.81;4422444;32;20473;-70
2021/10/11 05:12:00;;;;;;;10.18;2.10;;;;;;;17.89;43.57;102108.88;4425131;32;20112;-70
2021/10/11 05:14:26;;;;;;;12.45;3.92;;;;;;;17.86;43.67;102106.94;4419301;32;20076;-70
2021/10/11 05:16:53;;;;;;;10.48;1.62;;;;;;;17.94;43.83;102098.97;4423344;32;20365;-70
2021/10/11 05:19:24;;;;;;;12.27;1.80;;;;;;;17.94;43.62;102096.12;4423873;32;20057;-70
2021/10/11 05:21:51;;;;;;;17.80;2.17;;;;;;;17.94;43.42;102093.28;4420601;32;20514;-70
2021/10/11 05:24:17;;;;;;;7.37;1.75;;;;;;;18.01;43.37;102098.72;4422444;32;20082;-70
2021/10/11 05:26:44;;;;;;;15.15;1.75;;;;;;;17.82;43.61;102092.03;4423797;32;20100;-70
2021/10/11 05:29:10;;;;;;;10.23;1.95;;;;;;;17.86;43.55;102104.09;4422350;32;20029;-70
2021/10/11 05:31:36;;;;;;;10.98;1.73;;;;;;;17.91;43.52;102107.66;4421868;32;20117;-70
2021/10/11 05:34:04;;;;;;;15.73;2.05;;;;;;;18.01;43.54;102106.50;4422253;32;20485;-70
2021/10/11 05:36:30;;;;;;;13.48;1.98;;;;;;;18.01;43.38;102097.94;4421422;32;20093;-70
2021/10/11 05:38:55;;;;;;;14.30;2.78;;;;;;;17.74;43.75;102107.75;4424078;32;20082;-70
2021/10/11 05:41:21;;;;;;;11.57;2.12;;;;;;;17.79;43.64;102112.88;4416998;32;20097;-70
2021/10/11 05:43:46;;;;;;;12.65;2.30;;;;;;;17.77;43.88;102123.91;4424899;32;20401;-70
2021/10/11 05:46:12;;;;;;;13.30;2.50;;;;;;;17.77;43.92;102121.06;4424017;32;20077;-70
2021/10/11 05:48:38;;;;;;;14.50;2.53;;;;;;;17.59;44.35;102123.72;4424840;32;20038;-70
2021/10/11 05:51:04;;;;;;;22.62;3.28;;;;;;;17.61;44.28;102128.91;4423737;32;20482;-70
2021/10/11 05:53:31;;;;;;;13.85;2.12;;;;;;;17.62;44.21;102134.16;4422143;32;20451;-70
2021/10/11 05:55:58;;;;;;;11.12;1.92;;;;;;;17.66;44.23;102120.63;4423132;32;20081;-70
2021/10/11 05:58:23;;;;;;;11.60;2.03;;;;;;;17.64;44.21;102139.41;4407546;32;20188;-70
2021/10/11 06:00:49;;;;;;;11.77;2.42;;;;;;;17.60;44.24;102130.19;4426660;32;20059;-70
2021/10/11 06:03:15;;;;;;;18.30;2.20;;;;;;;17.63;44.40;102132.13;4429131;32;20089;-70
2021/10/11 06:05:40;;;;;;;13.70;2.40;;;;;;;17.58;44.38;102133.47;4426492;32;20037;-70
2021/10/11 06:08:06;;;;;;;13.57;2.47;;;;;;;17.56;44.32;102130.31;4424250;32;20477;-70
2021/10/11 06:10:32;;;;;;;11.05;2.58;;;;;;;17.54;44.35;102135.66;4427795;32;20092;-70
2021/10/11 06:12:57;;;;;;;13.13;2.15;;;;;;;17.55;44.32;102127.91;4427044;32;20093;-70
2021/10/11 06:15:23;;;;;;;9.80;2.12;;;;;;;17.60;44.21;102130.97;4423638;32;20084;-70
2021/10/11 06:17:49;;;;;;;15.27;2.25;;;;;;;17.57;44.27;102131.87;4423960;32;20046;-70
2021/10/11 06:20:14;;;;;;;21.37;3.00;;;;;;;17.52;44.44;102143.81;4425329;32;20058;-70
2021/10/11 06:22:40;;;;;;;17.17;3.22;;;;;;;17.46;44.35;102137.09;4426677;32;20017;-70
2021/10/11 06:25:06;;;;;;;17.85;3.10;;;;;;;17.57;44.50;102126.19;4426018;32;20536;-70
2021/10/11 06:27:32;;;;;;;16.65;2.78;;;;;;;17.64;44.36;102130.84;4422887;32;20462;-70
2021/10/11 06:29:59;;;;;;;14.98;2.53;;;;;;;17.54;44.31;102121.41;4427372;32;20073;-70
2021/10/11 06:32:25;;;;;;;19.50;3.05;;;;;;;17.66;44.29;102126.31;4424117;32;21489;-70
2021/10/11 06:34:50;;;;;;;13.85;2.45;;;;;;;17.64;44.26;102134.50;4423379;32;20110;-70
2021/10/11 06:37:16;;;;;;;17.67;2.83;;;;;;;17.57;44.44;102145.31;4417903;32;20274;-70
2021/10/11 06:39:42;;;;;;;18.27;2.25;;;;;;;17.63;44.31;102144.31;4420863;32;20120;-70
2021/10/11 06:42:08;;;;;;;14.63;2.83;;;;;;;17.50;44.49;102137.81;4423099;32;20510;-70
2021/10/11 06:44:34;;;;;;;12.30;2.90;;;;;;;17.59;44.35;102137.94;4422334;32;20041;-70
2021/10/11 06:47:00;;;;;;;16.20;3.05;;;;;;;17.62;44.26;102147.63;4413266;32;20107;-70
2021/10/11 06:49:26;;;;;;;15.75;3.30;;;;;;;17.62;44.39;102145.53;4411797;32;20432;-70
2021/10/11 06:51:52;;;;;;;10.27;2.87;;;;;;;17.66;44.41;102159.69;4412335;32;20545;-70
2021/10/11 06:54:19;;;;;;;12.52;2.70;;;;;;;17.68;44.39;102160.81;4416493;32;20802;-70
2021/10/11 06:56:44;;;;;;;16.65;3.72;;;;;;;17.66;44.34;102169.03;4414497;32;20104;-70
2021/10/11 06:59:10;;;;;;;18.67;3.53;;;;;;;17.59;44.60;102157.88;4411835;32;20367;-70
2021/10/11 07:01:36;;;;;;;12.27;2.83;;;;;;;17.75;44.19;102166.31;4402514;32;20156;-70
2021/10/11 07:04:01;;;;;;;18.50;4.03;;;;;;;17.96;43.84;102176.22;4394614;32;20093;-70
2021/10/11 07:06:27;;;;;;;11.02;3.75;;;;;;;17.80;44.18;102164.94;4396966;32;20034;-70
2021/10/11 07:08:53;;;;;;;16.05;3.62;;;;;;;18.12;43.75;102164.72;4398380;32;20069;-71
2021/10/11 07:11:19;;;;;;;15.02;3.90;;;;;;;18.26;43.72;102155.72;4400526;32;21255;-70
2021/10/11 07:13:44;;;;;;;16.20;4.05;;;;;;;18.37;43.49;102158.22;4402478;32;20792;-71
2021/10/11 07:16:10;;;;;;;22.45;4.00;;;;;;;18.27;43.55;102153.66;4397073;32;21037;-71
2021/10/11 07:18:38;;;;;;;18.98;4.37;;;;;;;18.66;43.08;102161.72;4396072;32;20077;-71
2021/10/11 07:21:06;;;;;;;21.95;4.85;;;;;;;18.71;43.05;102164.75;4400615;32;20097;-71
2021/10/11 07:23:33;;;;;;;18.37;3.62;;;;;;;19.11;42.34;102164.94;4401728;32;20085;-71
2021/10/11 07:26:01;;;;;;;17.77;4.47;;;;;;;19.07;42.26;102155.72;4402602;32;20077;-71
2021/10/11 07:28:27;;;;;;;19.70;5.18;;;;;;;19.19;42.34;102158.53;4400012;32;20099;-71
2021/10/11 07:30:53;;;;;;;12.85;4.00;;;;;;;19.20;42.14;102176.44;4399435;32;20449;-71
2021/10/11 07:33:20;;;;;;;21.85;4.45;;;;;;;19.20;41.86;102171.53;4402697;32;20149;-71
2021/10/11 07:35:46;;;;;;;19.67;4.82;;;;;;;19.32;41.87;102176.41;4400168;32;20320;-71
2021/10/11 07:38:11;;;;;;;18.02;4.75;;;;;;;19.39;41.63;102170.44;4399762;32;20112;-71
2021/10/11 07:40:37;;;;;;;18.58;5.62;;;;;;;19.39;41.72;102164.72;4400059;32;20100;-71
2021/10/11 07:43:03;;;;;;;17.55;4.00;;;;;;;19.32;41.92;102167.03;4399085;32;20216;-71
2021/10/11 07:45:29;;;;;;;16.52;3.95;;;;;;;19.51;41.56;102163.03;4400027;32;20077;-71
2021/10/11 07:47:55;;;;;;;14.65;2.60;;;;;;;19.60;41.43;102178.19;4399768;32;20440;-70
2021/10/11 07:50:21;;;;;;;14.27;2.10;;;;;;;19.76;41.30;102172.25;4402455;32;20502;-71
2021/10/11 07:52:47;;;;;;;14.60;2.37;;;;;;;19.84;40.84;102178.47;4402233;32;20140;-71
2021/10/11 07:55:12;;;;;;;10.65;2.15;;;;;;;19.82;41.02;102186.72;4399820;32;20524;-71
2021/10/11 07:57:39;;;;;;;9.80;2.05;;;;;;;20.02;40.50;102187.16;4402385;32;20210;-72
2021/10/11 08:00:10;;;;;;;9.65;1.95;;;;;;;20.27;40.34;102198.41;4405328;32;20100;-72
2021/10/11 08:02:36;;;;;;;13.75;1.85;;;;;;;20.68;39.58;102200.72;4399798;32;20080;-71
2021/10/11 08:05:02;;;;;;;7.32;1.35;;;;;;;20.64;39.67;102208.69;4398140;32;20923;-71
2021/10/11 08:07:28;;;;;;;8.95;1.27;;;;;;;20.81;39.46;102200.63;4400452;32;20169;-71
2021/10/11 08:09:53;;;;;;;6.68;1.62;;;;;;;20.92;39.11;102198.06;4397458;32;20096;-71
2021/10/11 08:12:21;;;;;;;11.85;2.12;;;;;;;21.00;38.69;102200.19;4401803;32;20119;-71
2021/10/11 08:14:46;;;;;;;17.02;1.95;;;;;;;21.20;38.57;102206.22;4401341;32;20467;-71
2021/10/11 08:17:12;;;;;;;8.95;1.65;;;;;;;21.55;38.07;102206.69;4402532;32;20391;-71
2021/10/11 08:19:38;;;;;;;6.53;1.33;;;;;;;21.73;37.55;102215.25;4400076;32;20085;-72
2021/10/11 08:22:05;;;;;;;15.98;1.73;;;;;;;22.03;37.16;102202.00;4401760;32;20500;-71
2021/10/11 08:24:30;;;;;;;11.65;1.85;;;;;;;22.45;36.37;102209.28;4397307;32;20222;-71
2021/10/11 08:26:56;;;;;;;6.85;1.40;;;;;;;22.59;35.87;102211.47;4400538;32;20733;-72
2021/10/11 08:29:22;;;;;;;8.98;1.33;;;;;;;23.14;34.95;102194.66;4400230;32;20105;-71
2021/10/11 08:31:48;;;;;;;11.35;1.92;;;;;;;23.04;34.95;102205.41;4398689;32;20180;-72
2021/10/11 08:34:14;;;;;;;14.05;1.80;;;;;;;23.41;34.31;102203.06;4401436;32;20128;-71
2021/10/11 08:36:39;;;;;;;12.13;1.42;;;;;;;23.90;33.81;102208.94;4398771;32;20123;-72
2021/10/11 08:39:05;;;;;;;9.68;1.40;;;;;;;24.18;33.15;102215.22;4400419;32;20132;-72
2021/10/11 08:41:31;;;;;;;8.43;1.75;;;;;;;24.42;32.57;102210.09;4400534;32;20436;-72
2021/10/11 08:43:57;;;;;;;5.78;1.25;;;;;;;24.60;32.55;102212.72;4399066;32;20432;-72
2021/10/11 08:46:24;;;;;;;6.20;1.00;;;;;;;24.23;32.68;102215.28;4399199;32;20476;-72
2021/10/11 08:48:51;;;;;;;7.97;1.30;;;;;;;24.44;32.63;102208.31;4396979;32;20089;-71
2021/10/11 08:51:17;;;;;;;9.27;1.02;;;;;;;24.07;32.76;102201.44;4393046;32;20068;-71
2021/10/11 08:53:44;;;;;;;8.15;1.73;;;;;;;24.32;32.37;102203.66;4397797;32;20101;-71
2021/10/11 08:56:11;;;;;;;6.47;1.50;;;;;;;23.96;32.95;102206.97;4399874;32;20678;-72
2021/10/11 08:58:46;;;;;;;14.00;1.62;;;;;;;24.62;32.43;102205.19;4399390;32;20528;-72
2021/10/11 09:01:13;;;;;;;8.13;1.40;;;;;;;24.79;31.81;102206.22;4398481;32;20097;-72
2021/10/11 09:03:39;;;;;;;6.37;1.10;;;;;;;24.94;31.66;102215.59;4401628;32;20070;-72
2021/10/11 09:06:08;;;;;;;8.10;1.27;;;;;;;25.17;31.76;102219.56;4398957;32;20187;-72
2021/10/11 09:08:35;;;;;;;8.85;1.10;;;;;;;25.36;31.45;102217.97;4398592;32;20466;-72
2021/10/11 09:11:04;;;;;;;7.22;1.60;;;;;;;25.11;31.68;102221.56;4400536;32;20193;-72
2021/10/11 09:13:33;;;;;;;7.62;0.98;;;;;;;25.51;31.11;102212.09;4400040;32;20104;-72
2021/10/11 09:18:42;;;;;;;6.37;1.25;;;;;;;25.37;31.93;102204.38;3972964;32;15140340;-72
2021/10/11 09:21:07;;;;;;;6.60;1.55;;;;;;;25.37;31.93;102204.38;4433010;32;20440;-72
2021/10/11 09:23:34;;;;;;;6.87;1.10;;;;;;;24.40;32.98;102201.97;4432667;32;20059;-73
2021/10/11 09:26:12;;;;;;;8.43;1.75;;;;;;;24.72;32.65;102214.47;4418715;32;20068;-72
2021/10/11 09:28:53;;;;;;;7.87;1.20;;;;;;;25.16;32.04;102215.88;4431838;32;20085;-72
2021/10/11 09:31:19;;;;;;;8.60;1.67;;;;;;;25.46;31.74;102224.38;4433182;32;20089;-72
2021/10/11 09:33:45;;;;;;;6.68;1.40;;;;;;;25.77;31.25;102219.47;4430054;32;20111;-72
2021/10/11 09:36:21;;;;;;;4.80;1.00;;;;;;;25.71;30.84;102214.97;4430832;32;20145;-72
2021/10/11 09:38:58;;;;;;;3.35;0.80;;;;;;;26.21;30.46;102216.22;4432634;32;20077;-72
2021/10/11 09:41:24;;;;;;;13.40;2.22;;;;;;;26.71;29.81;102214.50;4434187;32;20148;-72
2021/10/11 09:43:50;;;;;;;5.05;1.05;;;;;;;26.51;29.99;102212.50;4431411;32;20226;-71
2021/10/11 09:46:18;;;;;;;6.07;1.23;;;;;;;26.20;30.38;102203.88;4433490;32;20579;-72
2021/10/11 09:48:59;;;;;;;6.00;1.20;;;;;;;26.76;29.65;102193.53;4432994;32;20084;-72
2021/10/11 09:51:25;;;;;;;5.65;0.98;;;;;;;27.22;28.96;102185.31;4431747;32;20072;-72
2021/10/11 09:53:54;;;;;;;6.10;1.05;;;;;;;26.93;29.50;102191.50;4428674;32;20108;-72
2021/10/11 09:56:22;;;;;;;8.30;1.00;;;;;;;26.16;30.49;102194.66;4434703;32;20080;-71
2021/10/11 09:58:48;;;;;;;6.05;1.08;;;;;;;25.47;31.11;102197.94;4432877;32;20077;-72
2021/10/11 10:01:16;;;;;;;5.07;1.12;;;;;;;25.51;31.19;102194.81;4423101;32;20454;-72
2021/10/11 10:03:41;;;;;;;7.82;1.45;;;;;;;25.58;31.42;102200.91;4432830;32;20581;-72
2021/10/11 10:06:08;;;;;;;4.20;0.73;;;;;;;25.68;31.02;102195.78;4432077;32;20103;-72
2021/10/11 10:08:37;;;;;;;4.53;1.23;;;;;;;26.36;30.14;102211.09;4435061;32;20056;-72
2021/10/11 10:11:04;;;;;;;5.12;0.95;;;;;;;26.72;29.76;102207.44;4431451;32;20091;-72
2021/10/11 10:13:36;;;;;;;5.30;0.93;;;;;;;26.95;29.32;102209.91;4431357;32;20084;-72
2021/10/11 10:16:10;;;;;;;5.97;0.93;;;;;;;26.65;29.57;102214.47;4420087;32;20748;-71
2021/10/11 10:18:41;;;;;;;4.53;1.20;;;;;;;26.65;29.65;102210.78;4432716;32;20766;-71
2021/10/11 10:21:07;;;;;;;4.07;0.70;;;;;;;27.70;28.34;102206.22;4431558;32;20200;-71
2021/10/11 10:23:36;;;;;;;5.70;1.23;;;;;;;27.76;28.03;102195.44;4420388;32;20146;-72
2021/10/11 10:26:08;;;;;;;8.25;1.12;;;;;;;28.26;27.46;102202.06;4416795;32;20112;-71
2021/10/11 10:28:51;;;;;;;4.53;0.90;;;;;;;28.58;27.26;102209.16;4426470;32;20088;-72
2021/10/11 10:31:35;;;;;;;5.95;1.55;;;;;;;28.70;27.00;102216.53;4420438;32;20077;-71
2021/10/11 10:37:06;;;;;;;9.70;4.72;;;;;;;30.11;25.08;102216.84;3964173;32;15022182;-71
2021/10/11 10:39:43;;;;;;;8.60;4.12;;;;;;;30.11;25.08;102216.84;4411843;32;20443;-72
2021/10/11 10:42:19;;;;;;;6.40;2.60;;;;;;;28.69;26.71;102209.13;4412183;32;20162;-72
2021/10/11 10:44:46;;;;;;;7.15;2.53;;;;;;;27.99;27.80;102214.47;4415415;32;20070;-72
2021/10/11 10:47:12;;;;;;;5.00;2.10;;;;;;;27.37;28.65;102211.94;4415078;32;20137;-72
2021/10/11 10:49:42;;;;;;;6.55;1.45;;;;;;;26.74;29.46;102216.34;4411155;32;20359;-72
2021/10/11 10:52:14;;;;;;;7.97;1.55;;;;;;;26.83;29.59;102207.47;4412895;32;20094;-72
2021/10/11 10:54:44;;;;;;;8.93;1.50;;;;;;;26.59;30.14;102212.81;4415947;32;20038;-71
2021/10/11 10:57:13;;;;;;;7.68;1.17;;;;;;;25.62;31.55;102212.25;4414106;32;20064;-71
2021/10/11 10:59:40;;;;;;;4.70;1.33;;;;;;;26.19;30.80;102215.94;4415556;32;20107;-73
2021/10/11 11:02:09;;;;;;;6.12;1.58;;;;;;;26.17;30.52;102218.56;4414919;32;20232;-72
2021/10/11 11:04:35;;;;;;;5.95;1.25;;;;;;;25.98;31.16;102217.34;4413396;32;20072;-71
2021/10/11 11:07:06;;;;;;;4.18;1.00;;;;;;;26.33;30.63;102215.00;4412988;32;20161;-73
2021/10/11 11:09:46;;;;;;;11.02;1.30;;;;;;;26.31;30.79;102215.53;4414015;32;20069;-72
2021/10/11 11:12:14;;;;;;;4.40;1.05;;;;;;;26.64;30.38;102212.91;4413262;32;20080;-72
2021/10/11 11:14:43;;;;;;;6.15;1.00;;;;;;;26.58;30.42;102217.81;4411634;32;20089;-72
2021/10/11 11:17:13;;;;;;;4.93;1.27;;;;;;;26.66;29.86;102215.28;4411789;32;20549;-72
2021/10/11 11:19:41;;;;;;;8.27;1.65;;;;;;;25.92;31.10;102204.94;4414012;32;20103;-72
2021/10/11 11:22:08;;;;;;;11.18;2.78;;;;;;;26.45;30.84;102214.56;4416232;32;20123;-72